sensor_id;sensor_type;location;lat;lon;timestamp;temperature;humidity
25991;DHT22;13779;-33.886;151.198;2023-03-03T00:01:55;23.30;99.90
25991;DHT22;13779;-33.886;151.198;2023-03-03T00:04:25;23.30;99.90
25991;DHT22;13779;-33.886;151.198;2023-03-03T00:06:56;23.30;99.90
25991;DHT22;13779;-33.886;151.198;2023-03-03T00:09:27;23.40;99.90
25991;DHT22;13779;-33.886;151.198;2023-03-03T00:11:58;23.40;99.90
25991;DHT22;13779;-33.886;151.198;2023-03-03T00:14:33;23.30;99.90
25991;DHT22;13779;-33.886;151.198;2023-03-03T00:17:28;23.30;99.90
25991;DHT22;13779;-33.886;151.198;2023-03-03T00:19:59;23.30;99.90
25991;DHT22;13779;-33.886;151.198;2023-03-03T00:22:36;23.40;99.90
25991;DHT22;13779;-33.886;151.198;2023-03-03T00:25:32;23.40;99.90
25991;DHT22;13779;-33.886;151.198;2023-03-03T00:28:30;23.50;99.90
25991;DHT22;13779;-33.886;151.198;2023-03-03T00:31:01;23.50;99.90
25991;DHT22;13779;-33.886;151.198;2023-03-03T00:33:51;23.50;99.90
25991;DHT22;13779;-33.886;151.198;2023-03-03T00:36:35;23.50;99.90
25991;DHT22;13779;-33.886;151.198;2023-03-03T00:39:37;23.60;99.90
25991;DHT22;13779;-33.886;151.198;2023-03-03T00:42:16;23.60;99.90
25991;DHT22;13779;-33.886;151.198;2023-03-03T00:44:58;23.70;99.90
25991;DHT22;13779;-33.886;151.198;2023-03-03T00:47:35;23.70;99.90
25991;DHT22;13779;-33.886;151.198;2023-03-03T00:52:39;23.70;99.90
25991;DHT22;13779;-33.886;151.198;2023-03-03T00:55:10;23.70;99.90
25991;DHT22;13779;-33.886;151.198;2023-03-03T00:57:42;23.70;99.90
25991;DHT22;13779;-33.886;151.198;2023-03-03T01:00:13;23.70;99.90
25991;DHT22;13779;-33.886;151.198;2023-03-03T01:02:44;23.70;99.90
25991;DHT22;13779;-33.886;151.198;2023-03-03T01:05:18;23.60;99.90
25991;DHT22;13779;-33.886;151.198;2023-03-03T01:07:49;23.60;99.90
25991;DHT22;13779;-33.886;151.198;2023-03-03T01:10:19;23.70;99.90
25991;DHT22;13779;-33.886;151.198;2023-03-03T01:12:50;23.70;99.90
25991;DHT22;13779;-33.886;151.198;2023-03-03T01:15:21;23.70;99.90
25991;DHT22;13779;-33.886;151.198;2023-03-03T01:17:51;23.70;99.90
25991;DHT22;13779;-33.886;151.198;2023-03-03T01:20:22;23.70;99.90
25991;DHT22;13779;-33.886;151.198;2023-03-03T01:22:53;23.60;99.90
25991;DHT22;13779;-33.886;151.198;2023-03-03T01:25:23;23.70;99.90
25991;DHT22;13779;-33.886;151.198;2023-03-03T01:27:54;23.60;99.90
25991;DHT22;13779;-33.886;151.198;2023-03-03T01:30:26;23.70;99.90
25991;DHT22;13779;-33.886;151.198;2023-03-03T01:32:57;23.60;99.90
25991;DHT22;13779;-33.886;151.198;2023-03-03T01:35:28;23.40;99.90
25991;DHT22;13779;-33.886;151.198;2023-03-03T01:37:59;23.00;99.90
25991;DHT22;13779;-33.886;151.198;2023-03-03T01:40:31;22.80;99.90
25991;DHT22;13779;-33.886;151.198;2023-03-03T01:43:01;22.60;99.90
25991;DHT22;13779;-33.886;151.198;2023-03-03T01:53:47;22.20;99.90
25991;DHT22;13779;-33.886;151.198;2023-03-03T01:56:19;22.10;99.90
25991;DHT22;13779;-33.886;151.198;2023-03-03T02:01:29;22.00;99.90
25991;DHT22;13779;-33.886;151.198;2023-03-03T02:04:00;22.00;99.90
25991;DHT22;13779;-33.886;151.198;2023-03-03T02:06:34;22.00;99.90
25991;DHT22;13779;-33.886;151.198;2023-03-03T02:12:04;22.30;99.90
25991;DHT22;13779;-33.886;151.198;2023-03-03T02:14:36;22.20;99.90
25991;DHT22;13779;-33.886;151.198;2023-03-03T02:17:07;22.30;99.90
25991;DHT22;13779;-33.886;151.198;2023-03-03T02:22:08;22.40;99.90
25991;DHT22;13779;-33.886;151.198;2023-03-03T02:24:50;22.40;99.90
25991;DHT22;13779;-33.886;151.198;2023-03-03T02:27:22;22.40;99.90
25991;DHT22;13779;-33.886;151.198;2023-03-03T02:29:53;22.40;99.90
25991;DHT22;13779;-33.886;151.198;2023-03-03T02:32:23;22.40;99.90
25991;DHT22;13779;-33.886;151.198;2023-03-03T02:34:54;22.30;99.90
25991;DHT22;13779;-33.886;151.198;2023-03-03T02:37:25;22.30;99.90
25991;DHT22;13779;-33.886;151.198;2023-03-03T02:39:55;22.30;99.90
25991;DHT22;13779;-33.886;151.198;2023-03-03T02:42:29;22.40;99.90
25991;DHT22;13779;-33.886;151.198;2023-03-03T02:45:00;22.40;99.90
25991;DHT22;13779;-33.886;151.198;2023-03-03T02:47:31;22.40;99.90
25991;DHT22;13779;-33.886;151.198;2023-03-03T02:50:02;22.40;99.90
25991;DHT22;13779;-33.886;151.198;2023-03-03T02:52:33;22.50;99.90
25991;DHT22;13779;-33.886;151.198;2023-03-03T02:55:04;22.50;99.90
25991;DHT22;13779;-33.886;151.198;2023-03-03T02:57:35;22.60;99.90
25991;DHT22;13779;-33.886;151.198;2023-03-03T03:00:06;22.60;99.90
25991;DHT22;13779;-33.886;151.198;2023-03-03T03:02:37;22.50;99.90
25991;DHT22;13779;-33.886;151.198;2023-03-03T03:05:07;22.50;99.90
25991;DHT22;13779;-33.886;151.198;2023-03-03T03:07:40;22.70;99.90
25991;DHT22;13779;-33.886;151.198;2023-03-03T03:10:11;22.70;99.90
25991;DHT22;13779;-33.886;151.198;2023-03-03T03:12:41;22.70;99.90
25991;DHT22;13779;-33.886;151.198;2023-03-03T03:15:12;22.70;99.90
25991;DHT22;13779;-33.886;151.198;2023-03-03T03:17:42;22.70;99.90
25991;DHT22;13779;-33.886;151.198;2023-03-03T03:20:13;22.70;99.90
25991;DHT22;13779;-33.886;151.198;2023-03-03T03:22:44;22.70;99.90
25991;DHT22;13779;-33.886;151.198;2023-03-03T03:25:14;22.80;99.90
25991;DHT22;13779;-33.886;151.198;2023-03-03T03:27:45;22.70;99.90
25991;DHT22;13779;-33.886;151.198;2023-03-03T03:30:15;22.80;99.90
25991;DHT22;13779;-33.886;151.198;2023-03-03T03:32:49;23.00;99.90
25991;DHT22;13779;-33.886;151.198;2023-03-03T03:35:20;22.90;99.90
25991;DHT22;13779;-33.886;151.198;2023-03-03T03:37:50;22.90;99.90
25991;DHT22;13779;-33.886;151.198;2023-03-03T03:40:21;22.90;99.90
25991;DHT22;13779;-33.886;151.198;2023-03-03T03:42:54;22.90;99.90
25991;DHT22;13779;-33.886;151.198;2023-03-03T03:45:25;22.80;99.90
25991;DHT22;13779;-33.886;151.198;2023-03-03T03:47:56;22.80;99.90
25991;DHT22;13779;-33.886;151.198;2023-03-03T03:50:26;22.80;99.90
25991;DHT22;13779;-33.886;151.198;2023-03-03T03:52:57;23.00;99.90
25991;DHT22;13779;-33.886;151.198;2023-03-03T03:55:27;22.90;99.90
25991;DHT22;13779;-33.886;151.198;2023-03-03T03:57:58;22.90;99.90
25991;DHT22;13779;-33.886;151.198;2023-03-03T04:00:29;22.90;99.90
25991;DHT22;13779;-33.886;151.198;2023-03-03T04:03:00;23.00;99.90
25991;DHT22;13779;-33.886;151.198;2023-03-03T04:05:30;23.00;99.90
25991;DHT22;13779;-33.886;151.198;2023-03-03T04:08:01;23.20;99.90
25991;DHT22;13779;-33.886;151.198;2023-03-03T04:10:32;23.20;99.90
25991;DHT22;13779;-33.886;151.198;2023-03-03T04:13:02;23.10;99.90
25991;DHT22;13779;-33.886;151.198;2023-03-03T04:15:33;23.00;99.90
25991;DHT22;13779;-33.886;151.198;2023-03-03T04:18:04;23.00;99.90
25991;DHT22;13779;-33.886;151.198;2023-03-03T04:20:35;23.00;99.90
25991;DHT22;13779;-33.886;151.198;2023-03-03T04:23:05;23.00;99.90
25991;DHT22;13779;-33.886;151.198;2023-03-03T04:25:36;23.10;99.90
25991;DHT22;13779;-33.886;151.198;2023-03-03T04:28:07;23.20;99.90
25991;DHT22;13779;-33.886;151.198;2023-03-03T04:30:39;23.20;99.90
25991;DHT22;13779;-33.886;151.198;2023-03-03T04:33:10;23.20;99.90
25991;DHT22;13779;-33.886;151.198;2023-03-03T04:35:40;23.20;99.90
25991;DHT22;13779;-33.886;151.198;2023-03-03T04:38:11;23.30;99.90
25991;DHT22;13779;-33.886;151.198;2023-03-03T04:40:42;23.20;99.90
25991;DHT22;13779;-33.886;151.198;2023-03-03T04:43:12;23.30;99.90
25991;DHT22;13779;-33.886;151.198;2023-03-03T04:45:43;23.20;99.90
25991;DHT22;13779;-33.886;151.198;2023-03-03T04:48:14;23.20;99.90
25991;DHT22;13779;-33.886;151.198;2023-03-03T04:50:44;23.20;99.90
25991;DHT22;13779;-33.886;151.198;2023-03-03T04:53:14;23.20;99.90
25991;DHT22;13779;-33.886;151.198;2023-03-03T04:55:45;23.20;99.90
25991;DHT22;13779;-33.886;151.198;2023-03-03T04:58:15;23.10;99.90
25991;DHT22;13779;-33.886;151.198;2023-03-03T05:00:54;23.10;99.90
25991;DHT22;13779;-33.886;151.198;2023-03-03T05:03:24;23.10;99.90
25991;DHT22;13779;-33.886;151.198;2023-03-03T05:05:55;23.10;99.90
25991;DHT22;13779;-33.886;151.198;2023-03-03T05:08:25;23.00;99.90
25991;DHT22;13779;-33.886;151.198;2023-03-03T05:10:56;23.00;99.90
25991;DHT22;13779;-33.886;151.198;2023-03-03T05:13:28;23.00;99.90
25991;DHT22;13779;-33.886;151.198;2023-03-03T05:15:58;23.00;99.90
25991;DHT22;13779;-33.886;151.198;2023-03-03T05:18:29;23.00;99.90
25991;DHT22;13779;-33.886;151.198;2023-03-03T05:20:59;23.00;99.90
25991;DHT22;13779;-33.886;151.198;2023-03-03T05:23:29;23.00;99.90
25991;DHT22;13779;-33.886;151.198;2023-03-03T05:25:59;22.90;99.90
25991;DHT22;13779;-33.886;151.198;2023-03-03T05:28:31;22.90;99.90
25991;DHT22;13779;-33.886;151.198;2023-03-03T05:31:01;23.00;99.90
25991;DHT22;13779;-33.886;151.198;2023-03-03T05:33:31;23.00;99.90
25991;DHT22;13779;-33.886;151.198;2023-03-03T05:36:01;23.00;99.90
25991;DHT22;13779;-33.886;151.198;2023-03-03T05:38:31;23.00;99.90
25991;DHT22;13779;-33.886;151.198;2023-03-03T05:41:02;23.00;99.90
25991;DHT22;13779;-33.886;151.198;2023-03-03T05:43:32;23.10;99.90
25991;DHT22;13779;-33.886;151.198;2023-03-03T05:46:06;23.20;99.90
25991;DHT22;13779;-33.886;151.198;2023-03-03T05:48:36;23.20;99.90
25991;DHT22;13779;-33.886;151.198;2023-03-03T05:51:07;23.20;99.90
25991;DHT22;13779;-33.886;151.198;2023-03-03T05:53:37;23.30;99.90
25991;DHT22;13779;-33.886;151.198;2023-03-03T05:56:07;23.20;99.90
25991;DHT22;13779;-33.886;151.198;2023-03-03T05:58:37;23.30;99.90
25991;DHT22;13779;-33.886;151.198;2023-03-03T06:01:07;23.30;99.90
25991;DHT22;13779;-33.886;151.198;2023-03-03T06:03:37;23.30;99.90
25991;DHT22;13779;-33.886;151.198;2023-03-03T06:06:08;23.40;99.90
25991;DHT22;13779;-33.886;151.198;2023-03-03T06:08:38;23.30;99.90
25991;DHT22;13779;-33.886;151.198;2023-03-03T06:11:10;23.30;99.90
25991;DHT22;13779;-33.886;151.198;2023-03-03T06:13:41;23.20;99.90
25991;DHT22;13779;-33.886;151.198;2023-03-03T06:16:11;23.30;99.90
25991;DHT22;13779;-33.886;151.198;2023-03-03T06:18:41;23.30;99.90
25991;DHT22;13779;-33.886;151.198;2023-03-03T06:21:13;23.20;99.90
25991;DHT22;13779;-33.886;151.198;2023-03-03T06:23:43;23.20;99.90
25991;DHT22;13779;-33.886;151.198;2023-03-03T06:26:13;23.20;99.90
25991;DHT22;13779;-33.886;151.198;2023-03-03T06:28:43;23.20;99.90
25991;DHT22;13779;-33.886;151.198;2023-03-03T06:31:14;23.20;99.90
25991;DHT22;13779;-33.886;151.198;2023-03-03T06:33:44;23.30;99.90
25991;DHT22;13779;-33.886;151.198;2023-03-03T06:36:14;23.40;99.90
25991;DHT22;13779;-33.886;151.198;2023-03-03T06:38:44;23.40;99.90
25991;DHT22;13779;-33.886;151.198;2023-03-03T06:41:15;23.40;99.90
25991;DHT22;13779;-33.886;151.198;2023-03-03T06:43:45;23.40;99.90
25991;DHT22;13779;-33.886;151.198;2023-03-03T06:46:15;23.30;99.90
25991;DHT22;13779;-33.886;151.198;2023-03-03T06:48:46;23.30;99.90
25991;DHT22;13779;-33.886;151.198;2023-03-03T06:51:29;23.30;99.90
25991;DHT22;13779;-33.886;151.198;2023-03-03T06:54:13;23.30;99.90
25991;DHT22;13779;-33.886;151.198;2023-03-03T06:56:44;23.30;99.90
25991;DHT22;13779;-33.886;151.198;2023-03-03T06:59:20;23.30;99.90
25991;DHT22;13779;-33.886;151.198;2023-03-03T07:01:51;23.30;99.90
25991;DHT22;13779;-33.886;151.198;2023-03-03T07:04:30;23.30;99.90
25991;DHT22;13779;-33.886;151.198;2023-03-03T07:07:19;23.30;99.90
25991;DHT22;13779;-33.886;151.198;2023-03-03T07:09:52;23.30;99.90
25991;DHT22;13779;-33.886;151.198;2023-03-03T07:12:24;23.30;99.90
25991;DHT22;13779;-33.886;151.198;2023-03-03T07:15:19;23.30;99.90
25991;DHT22;13779;-33.886;151.198;2023-03-03T07:17:55;23.20;99.90
25991;DHT22;13779;-33.886;151.198;2023-03-03T07:20:39;23.30;99.90
25991;DHT22;13779;-33.886;151.198;2023-03-03T07:25:53;23.30;99.90
25991;DHT22;13779;-33.886;151.198;2023-03-03T07:28:28;23.30;99.90
25991;DHT22;13779;-33.886;151.198;2023-03-03T07:30:58;23.30;99.90
25991;DHT22;13779;-33.886;151.198;2023-03-03T07:33:34;23.30;99.90
25991;DHT22;13779;-33.886;151.198;2023-03-03T07:36:21;23.30;99.90
25991;DHT22;13779;-33.886;151.198;2023-03-03T07:38:58;23.30;99.90
25991;DHT22;13779;-33.886;151.198;2023-03-03T07:41:30;23.30;99.90
25991;DHT22;13779;-33.886;151.198;2023-03-03T07:44:05;23.30;99.90
25991;DHT22;13779;-33.886;151.198;2023-03-03T07:46:46;23.40;99.90
25991;DHT22;13779;-33.886;151.198;2023-03-03T07:49:43;23.40;99.90
25991;DHT22;13779;-33.886;151.198;2023-03-03T07:52:24;23.40;99.90
25991;DHT22;13779;-33.886;151.198;2023-03-03T07:54:58;23.40;99.90
25991;DHT22;13779;-33.886;151.198;2023-03-03T07:57:35;23.30;99.90
25991;DHT22;13779;-33.886;151.198;2023-03-03T08:05:41;23.20;99.90
25991;DHT22;13779;-33.886;151.198;2023-03-03T08:08:32;23.20;99.90
25991;DHT22;13779;-33.886;151.198;2023-03-03T08:11:05;23.20;99.90
25991;DHT22;13779;-33.886;151.198;2023-03-03T08:13:40;23.20;99.90
25991;DHT22;13779;-33.886;151.198;2023-03-03T08:18:45;23.20;99.90
25991;DHT22;13779;-33.886;151.198;2023-03-03T08:21:24;23.20;99.90
25991;DHT22;13779;-33.886;151.198;2023-03-03T08:23:54;23.10;99.90
25991;DHT22;13779;-33.886;151.198;2023-03-03T08:26:25;23.00;99.90
25991;DHT22;13779;-33.886;151.198;2023-03-03T08:28:55;23.00;99.90
25991;DHT22;13779;-33.886;151.198;2023-03-03T08:31:25;22.90;99.90
25991;DHT22;13779;-33.886;151.198;2023-03-03T08:34:08;22.90;99.90
25991;DHT22;13779;-33.886;151.198;2023-03-03T08:36:38;23.00;99.90
25991;DHT22;13779;-33.886;151.198;2023-03-03T08:39:08;22.90;99.90
25991;DHT22;13779;-33.886;151.198;2023-03-03T08:41:38;23.00;99.90
25991;DHT22;13779;-33.886;151.198;2023-03-03T08:44:12;22.90;99.90
25991;DHT22;13779;-33.886;151.198;2023-03-03T08:46:42;22.80;99.90
25991;DHT22;13779;-33.886;151.198;2023-03-03T08:49:15;22.70;99.90
25991;DHT22;13779;-33.886;151.198;2023-03-03T08:51:46;22.50;99.90
25991;DHT22;13779;-33.886;151.198;2023-03-03T08:54:16;22.30;99.90
25991;DHT22;13779;-33.886;151.198;2023-03-03T08:56:47;22.20;99.90
25991;DHT22;13779;-33.886;151.198;2023-03-03T08:59:17;22.10;99.90
25991;DHT22;13779;-33.886;151.198;2023-03-03T09:01:48;22.10;99.90
25991;DHT22;13779;-33.886;151.198;2023-03-03T09:04:19;22.00;99.90
25991;DHT22;13779;-33.886;151.198;2023-03-03T09:06:49;21.90;99.90
25991;DHT22;13779;-33.886;151.198;2023-03-03T09:09:19;21.90;99.90
25991;DHT22;13779;-33.886;151.198;2023-03-03T09:11:49;21.80;99.90
25991;DHT22;13779;-33.886;151.198;2023-03-03T09:14:22;21.80;99.90
25991;DHT22;13779;-33.886;151.198;2023-03-03T09:16:56;21.80;99.90
25991;DHT22;13779;-33.886;151.198;2023-03-03T09:19:32;21.80;99.90
25991;DHT22;13779;-33.886;151.198;2023-03-03T09:22:23;21.70;99.90
25991;DHT22;13779;-33.886;151.198;2023-03-03T09:24:56;21.70;99.90
25991;DHT22;13779;-33.886;151.198;2023-03-03T09:27:34;21.70;99.90
25991;DHT22;13779;-33.886;151.198;2023-03-03T09:30:39;21.70;99.90
25991;DHT22;13779;-33.886;151.198;2023-03-03T09:36:11;21.70;99.90
25991;DHT22;13779;-33.886;151.198;2023-03-03T09:38:48;21.70;99.90
25991;DHT22;13779;-33.886;151.198;2023-03-03T09:52:41;21.70;99.90
25991;DHT22;13779;-33.886;151.198;2023-03-03T09:58:35;21.70;99.90
25991;DHT22;13779;-33.886;151.198;2023-03-03T10:06:52;21.70;99.90
25991;DHT22;13779;-33.886;151.198;2023-03-03T10:12:15;21.70;99.90
25991;DHT22;13779;-33.886;151.198;2023-03-03T10:14:58;21.70;99.90
25991;DHT22;13779;-33.886;151.198;2023-03-03T10:26:13;21.60;99.90
25991;DHT22;13779;-33.886;151.198;2023-03-03T10:32:06;21.60;99.90
25991;DHT22;13779;-33.886;151.198;2023-03-03T10:35:01;21.60;99.90
25991;DHT22;13779;-33.886;151.198;2023-03-03T10:40:44;21.60;99.90
25991;DHT22;13779;-33.886;151.198;2023-03-03T10:43:37;21.50;99.90
25991;DHT22;13779;-33.886;151.198;2023-03-03T10:54:44;21.50;99.90
25991;DHT22;13779;-33.886;151.198;2023-03-03T10:57:37;21.60;99.90
25991;DHT22;13779;-33.886;151.198;2023-03-03T11:06:20;21.50;99.90
25991;DHT22;13779;-33.886;151.198;2023-03-03T11:14:37;21.60;99.90
25991;DHT22;13779;-33.886;151.198;2023-03-03T11:23:06;21.50;99.90
25991;DHT22;13779;-33.886;151.198;2023-03-03T11:36:35;21.40;99.90
25991;DHT22;13779;-33.886;151.198;2023-03-03T11:39:08;21.40;99.90
25991;DHT22;13779;-33.886;151.198;2023-03-03T11:45:12;21.40;99.90
25991;DHT22;13779;-33.886;151.198;2023-03-03T12:04:51;21.50;99.90
25991;DHT22;13779;-33.886;151.198;2023-03-03T12:10:27;21.50;99.90
25991;DHT22;13779;-33.886;151.198;2023-03-03T12:13:19;21.50;99.90
25991;DHT22;13779;-33.886;151.198;2023-03-03T12:15:54;21.50;99.90
25991;DHT22;13779;-33.886;151.198;2023-03-03T12:19:00;21.50;99.90
25991;DHT22;13779;-33.886;151.198;2023-03-03T12:27:06;21.60;99.90
25991;DHT22;13779;-33.886;151.198;2023-03-03T12:35:41;21.50;99.90
25991;DHT22;13779;-33.886;151.198;2023-03-03T12:38:24;21.50;99.90
25991;DHT22;13779;-33.886;151.198;2023-03-03T12:53:17;21.60;99.90
25991;DHT22;13779;-33.886;151.198;2023-03-03T12:56:17;21.50;99.90
25991;DHT22;13779;-33.886;151.198;2023-03-03T13:16:35;21.60;99.90
25991;DHT22;13779;-33.886;151.198;2023-03-03T13:19:23;21.60;99.90
25991;DHT22;13779;-33.886;151.198;2023-03-03T13:22:01;21.60;99.90
25991;DHT22;13779;-33.886;151.198;2023-03-03T13:27:22;21.70;99.90
25991;DHT22;13779;-33.886;151.198;2023-03-03T13:32:58;21.60;99.90
25991;DHT22;13779;-33.886;151.198;2023-03-03T13:35:43;21.70;99.90
25991;DHT22;13779;-33.886;151.198;2023-03-03T13:38:21;21.70;99.90
25991;DHT22;13779;-33.886;151.198;2023-03-03T13:44:05;21.70;99.90
25991;DHT22;13779;-33.886;151.198;2023-03-03T13:56:07;21.70;99.90
25991;DHT22;13779;-33.886;151.198;2023-03-03T13:59:01;21.70;99.90
25991;DHT22;13779;-33.886;151.198;2023-03-03T14:07:27;21.60;99.90
25991;DHT22;13779;-33.886;151.198;2023-03-03T14:13:03;21.60;99.90
25991;DHT22;13779;-33.886;151.198;2023-03-03T14:16:15;21.70;99.90
25991;DHT22;13779;-33.886;151.198;2023-03-03T14:18:58;21.60;99.90
25991;DHT22;13779;-33.886;151.198;2023-03-03T14:24:27;21.60;99.90
25991;DHT22;13779;-33.886;151.198;2023-03-03T14:26:59;21.70;99.90
25991;DHT22;13779;-33.886;151.198;2023-03-03T14:29:32;21.70;99.90
25991;DHT22;13779;-33.886;151.198;2023-03-03T14:32:24;21.70;99.90
25991;DHT22;13779;-33.886;151.198;2023-03-03T14:35:18;21.70;99.90
25991;DHT22;13779;-33.886;151.198;2023-03-03T14:37:50;21.70;99.90
25991;DHT22;13779;-33.886;151.198;2023-03-03T14:40:21;21.60;99.90
25991;DHT22;13779;-33.886;151.198;2023-03-03T14:45:39;21.60;99.90
25991;DHT22;13779;-33.886;151.198;2023-03-03T14:48:18;21.60;99.90
25991;DHT22;13779;-33.886;151.198;2023-03-03T14:50:59;21.60;99.90
25991;DHT22;13779;-33.886;151.198;2023-03-03T14:53:46;21.60;99.90
25991;DHT22;13779;-33.886;151.198;2023-03-03T14:56:25;21.50;99.90
25991;DHT22;13779;-33.886;151.198;2023-03-03T14:59:19;21.50;99.90
25991;DHT22;13779;-33.886;151.198;2023-03-03T15:04:47;21.50;99.90
25991;DHT22;13779;-33.886;151.198;2023-03-03T15:07:38;21.50;99.90
25991;DHT22;13779;-33.886;151.198;2023-03-03T15:10:09;21.50;99.90
25991;DHT22;13779;-33.886;151.198;2023-03-03T15:12:45;21.60;99.90
25991;DHT22;13779;-33.886;151.198;2023-03-03T15:15:22;21.50;99.90
25991;DHT22;13779;-33.886;151.198;2023-03-03T15:18:10;21.50;99.90
25991;DHT22;13779;-33.886;151.198;2023-03-03T15:26:29;21.50;99.90
25991;DHT22;13779;-33.886;151.198;2023-03-03T15:29:12;21.50;99.90
25991;DHT22;13779;-33.886;151.198;2023-03-03T15:34:24;21.50;99.90
25991;DHT22;13779;-33.886;151.198;2023-03-03T15:42:56;21.60;99.90
25991;DHT22;13779;-33.886;151.198;2023-03-03T15:51:30;21.70;99.90
25991;DHT22;13779;-33.886;151.198;2023-03-03T16:19:15;21.40;99.90
25991;DHT22;13779;-33.886;151.198;2023-03-03T16:28:02;21.40;99.90
25991;DHT22;13779;-33.886;151.198;2023-03-03T16:36:35;21.30;99.90
25991;DHT22;13779;-33.886;151.198;2023-03-03T16:41:50;21.30;99.90
25991;DHT22;13779;-33.886;151.198;2023-03-03T16:44:42;21.30;99.90
25991;DHT22;13779;-33.886;151.198;2023-03-03T16:47:36;21.30;99.90
25991;DHT22;13779;-33.886;151.198;2023-03-03T16:53:40;21.20;99.90
25991;DHT22;13779;-33.886;151.198;2023-03-03T16:56:29;21.30;99.90
25991;DHT22;13779;-33.886;151.198;2023-03-03T17:07:52;21.20;99.90
25991;DHT22;13779;-33.886;151.198;2023-03-03T17:10:30;21.20;99.90
25991;DHT22;13779;-33.886;151.198;2023-03-03T17:16:01;21.20;99.90
25991;DHT22;13779;-33.886;151.198;2023-03-03T17:19:24;21.20;99.90
25991;DHT22;13779;-33.886;151.198;2023-03-03T17:28:14;21.10;99.90
25991;DHT22;13779;-33.886;151.198;2023-03-03T17:40:02;21.20;99.90
25991;DHT22;13779;-33.886;151.198;2023-03-03T17:45:40;21.20;99.90
25991;DHT22;13779;-33.886;151.198;2023-03-03T17:48:36;21.20;99.90
25991;DHT22;13779;-33.886;151.198;2023-03-03T18:00:00;21.10;99.90
25991;DHT22;13779;-33.886;151.198;2023-03-03T18:05:48;21.10;99.90
25991;DHT22;13779;-33.886;151.198;2023-03-03T18:22:54;21.20;99.90
25991;DHT22;13779;-33.886;151.198;2023-03-03T18:25:50;21.20;99.90
25991;DHT22;13779;-33.886;151.198;2023-03-03T18:28:21;21.20;99.90
25991;DHT22;13779;-33.886;151.198;2023-03-03T18:31:02;21.20;99.90
25991;DHT22;13779;-33.886;151.198;2023-03-03T18:39:02;21.10;99.90
25991;DHT22;13779;-33.886;151.198;2023-03-03T18:41:36;21.20;99.90
25991;DHT22;13779;-33.886;151.198;2023-03-03T18:44:29;21.20;99.90
25991;DHT22;13779;-33.886;151.198;2023-03-03T18:47:00;21.20;99.90
25991;DHT22;13779;-33.886;151.198;2023-03-03T18:49:54;21.10;99.90
25991;DHT22;13779;-33.886;151.198;2023-03-03T18:52:28;21.20;99.90
25991;DHT22;13779;-33.886;151.198;2023-03-03T18:55:23;21.10;99.90
25991;DHT22;13779;-33.886;151.198;2023-03-03T19:01:45;21.20;99.90
25991;DHT22;13779;-33.886;151.198;2023-03-03T19:09:04;21.20;99.90
25991;DHT22;13779;-33.886;151.198;2023-03-03T19:11:53;21.10;99.90
25991;DHT22;13779;-33.886;151.198;2023-03-03T19:16:57;21.10;99.90
25991;DHT22;13779;-33.886;151.198;2023-03-03T19:19:32;21.10;99.90
25991;DHT22;13779;-33.886;151.198;2023-03-03T19:22:24;21.00;99.90
25991;DHT22;13779;-33.886;151.198;2023-03-03T19:30:35;20.80;99.90
25991;DHT22;13779;-33.886;151.198;2023-03-03T19:40:24;20.80;99.90
25991;DHT22;13779;-33.886;151.198;2023-03-03T19:42:32;20.80;99.90
25991;DHT22;13779;-33.886;151.198;2023-03-03T19:51:56;20.80;99.90
25991;DHT22;13779;-33.886;151.198;2023-03-03T19:54:45;20.70;99.90
25991;DHT22;13779;-33.886;151.198;2023-03-03T20:03:43;20.80;99.90
25991;DHT22;13779;-33.886;151.198;2023-03-03T20:12:06;20.80;99.90
25991;DHT22;13779;-33.886;151.198;2023-03-03T20:14:58;20.90;99.90
25991;DHT22;13779;-33.886;151.198;2023-03-03T20:26:32;20.90;99.90
25991;DHT22;13779;-33.886;151.198;2023-03-03T20:31:34;20.90;99.90
25991;DHT22;13779;-33.886;151.198;2023-03-03T20:51:36;21.30;99.90
25991;DHT22;13779;-33.886;151.198;2023-03-03T20:54:22;21.30;99.90
25991;DHT22;13779;-33.886;151.198;2023-03-03T21:00:12;21.40;99.90
25991;DHT22;13779;-33.886;151.198;2023-03-03T21:05:20;21.40;99.90
25991;DHT22;13779;-33.886;151.198;2023-03-03T21:07:58;21.40;99.90
25991;DHT22;13779;-33.886;151.198;2023-03-03T21:10:35;21.40;99.90
25991;DHT22;13779;-33.886;151.198;2023-03-03T21:16:02;21.50;99.90
25991;DHT22;13779;-33.886;151.198;2023-03-03T21:18:34;21.50;99.90
25991;DHT22;13779;-33.886;151.198;2023-03-03T21:21:05;21.50;99.90
25991;DHT22;13779;-33.886;151.198;2023-03-03T21:23:36;21.50;99.90
25991;DHT22;13779;-33.886;151.198;2023-03-03T21:26:06;21.60;99.90
25991;DHT22;13779;-33.886;151.198;2023-03-03T21:28:36;21.60;99.90
25991;DHT22;13779;-33.886;151.198;2023-03-03T21:33:53;21.60;99.90
25991;DHT22;13779;-33.886;151.198;2023-03-03T21:36:47;21.70;99.90
25991;DHT22;13779;-33.886;151.198;2023-03-03T21:39:38;21.80;99.90
25991;DHT22;13779;-33.886;151.198;2023-03-03T21:42:25;21.80;99.90
25991;DHT22;13779;-33.886;151.198;2023-03-03T21:44:57;21.90;99.90
25991;DHT22;13779;-33.886;151.198;2023-03-03T21:47:37;22.00;99.90
25991;DHT22;13779;-33.886;151.198;2023-03-03T21:50:09;22.00;99.90
25991;DHT22;13779;-33.886;151.198;2023-03-03T21:52:40;22.00;99.90
25991;DHT22;13779;-33.886;151.198;2023-03-03T21:55:11;22.00;99.90
25991;DHT22;13779;-33.886;151.198;2023-03-03T21:57:42;22.00;99.90
25991;DHT22;13779;-33.886;151.198;2023-03-03T22:00:12;22.00;99.90
25991;DHT22;13779;-33.886;151.198;2023-03-03T22:02:42;22.10;99.90
25991;DHT22;13779;-33.886;151.198;2023-03-03T22:05:13;22.10;99.90
25991;DHT22;13779;-33.886;151.198;2023-03-03T22:07:43;22.20;99.90
25991;DHT22;13779;-33.886;151.198;2023-03-03T22:10:13;22.20;99.90
25991;DHT22;13779;-33.886;151.198;2023-03-03T22:12:44;22.10;99.90
25991;DHT22;13779;-33.886;151.198;2023-03-03T22:15:14;22.10;99.90
25991;DHT22;13779;-33.886;151.198;2023-03-03T22:17:44;22.10;99.90
25991;DHT22;13779;-33.886;151.198;2023-03-03T22:20:15;22.10;99.90
25991;DHT22;13779;-33.886;151.198;2023-03-03T22:22:46;22.10;99.90
25991;DHT22;13779;-33.886;151.198;2023-03-03T22:25:16;22.20;99.90
25991;DHT22;13779;-33.886;151.198;2023-03-03T22:27:46;22.30;99.90
25991;DHT22;13779;-33.886;151.198;2023-03-03T22:30:16;22.30;99.90
25991;DHT22;13779;-33.886;151.198;2023-03-03T22:32:46;22.40;99.90
25991;DHT22;13779;-33.886;151.198;2023-03-03T22:35:20;22.40;99.90